createdAt,value
2022-12-25T00:03:28.151Z,24.81
2022-12-25T00:04:28.024Z,24.83
2022-12-25T00:05:27.989Z,24.83
2022-12-25T00:06:27.974Z,24.81
2022-12-25T00:07:27.951Z,24.84
2022-12-25T00:08:27.940Z,24.83
2022-12-25T00:09:27.937Z,24.84
2022-12-25T00:10:27.924Z,24.81
2022-12-25T00:11:27.918Z,24.83
2022-12-25T00:12:27.916Z,24.81
2022-12-25T00:13:27.880Z,24.84
2022-12-25T00:14:27.881Z,24.83
2022-12-25T00:15:27.855Z,24.83
2022-12-25T00:16:27.908Z,24.81
2022-12-25T00:17:27.839Z,24.81
2022-12-25T00:18:27.844Z,24.84
2022-12-25T00:19:27.842Z,24.84
2022-12-25T00:20:27.807Z,24.84
2022-12-25T00:21:27.788Z,24.81
2022-12-25T00:22:27.807Z,24.83
2022-12-25T00:23:27.760Z,24.84
2022-12-25T00:24:27.775Z,24.83
2022-12-25T00:25:27.773Z,24.83
2022-12-25T00:26:27.743Z,24.84
2022-12-25T00:27:27.728Z,24.83
2022-12-25T00:28:27.753Z,24.83
2022-12-25T00:29:27.710Z,24.84
2022-12-25T00:30:27.710Z,24.86
2022-12-25T00:31:27.700Z,24.86
2022-12-25T00:32:27.684Z,24.86
2022-12-25T00:33:27.669Z,24.87
2022-12-25T00:34:27.641Z,24.86
2022-12-25T00:35:27.650Z,24.84
2022-12-25T00:36:27.639Z,24.83
2022-12-25T00:37:27.622Z,24.83
2022-12-25T00:38:27.620Z,24.86
2022-12-25T00:39:27.578Z,24.83
2022-12-25T00:40:27.603Z,24.83
2022-12-25T00:41:27.576Z,24.84
2022-12-25T00:42:27.580Z,24.83
2022-12-25T00:43:27.745Z,24.83
2022-12-25T00:44:27.536Z,24.84
2022-12-25T00:45:27.607Z,24.83
2022-12-25T00:46:27.640Z,24.84
2022-12-25T00:47:27.514Z,24.83
2022-12-25T00:48:27.486Z,24.83
2022-12-25T00:49:27.478Z,24.84
2022-12-25T00:50:27.502Z,24.84
2022-12-25T00:51:27.449Z,24.84
2022-12-25T00:52:27.443Z,24.84
2022-12-25T00:53:27.437Z,24.83
2022-12-25T00:54:27.436Z,24.83
2022-12-25T00:55:27.433Z,24.86
2022-12-25T00:56:27.389Z,24.86
2022-12-25T00:57:27.370Z,24.86
2022-12-25T00:58:27.386Z,24.87
2022-12-25T00:59:27.338Z,24.84
2022-12-25T01:00:27.352Z,24.84
2022-12-25T01:01:27.415Z,24.86
2022-12-25T01:02:27.557Z,24.86
2022-12-25T01:03:27.338Z,24.86
2022-12-25T01:04:27.291Z,24.87
2022-12-25T01:05:27.292Z,24.87
2022-12-25T01:06:27.273Z,24.86
2022-12-25T01:07:27.247Z,24.86
2022-12-25T01:08:27.236Z,24.86
2022-12-25T01:09:27.229Z,24.87
2022-12-25T01:10:27.212Z,24.84
2022-12-25T01:11:27.201Z,24.86
2022-12-25T01:12:27.162Z,24.83
2022-12-25T01:13:27.128Z,24.84
2022-12-25T01:14:27.133Z,24.84
2022-12-25T01:15:27.136Z,24.84
2022-12-25T01:16:27.170Z,24.84
2022-12-25T01:17:27.061Z,24.86
2022-12-25T01:18:27.062Z,24.87
2022-12-25T01:19:27.043Z,24.86
2022-12-25T01:20:27.050Z,24.86
2022-12-25T01:21:27.036Z,24.87
2022-12-25T01:22:26.999Z,24.87
2022-12-25T01:23:26.953Z,24.84
2022-12-25T01:24:27.006Z,24.86
2022-12-25T01:25:26.930Z,24.84
2022-12-25T01:26:26.941Z,24.86
2022-12-25T01:27:26.920Z,24.84
2022-12-25T01:28:26.910Z,24.87
2022-12-25T01:29:26.872Z,24.86
2022-12-25T01:30:26.864Z,24.84
2022-12-25T01:31:26.891Z,24.87
2022-12-25T01:32:26.844Z,24.87
2022-12-25T01:33:26.811Z,24.86
2022-12-25T01:34:26.812Z,24.86
2022-12-25T01:35:26.801Z,24.86
2022-12-25T01:36:26.778Z,24.86
2022-12-25T01:37:26.769Z,24.86
2022-12-25T01:38:26.737Z,24.87
2022-12-25T01:39:26.744Z,24.84
2022-12-25T01:40:26.723Z,24.86
2022-12-25T01:41:26.687Z,24.86
2022-12-25T01:42:26.687Z,24.86
2022-12-25T01:43:26.655Z,24.84
2022-12-25T01:44:26.669Z,24.84
2022-12-25T01:45:26.646Z,24.86
2022-12-25T01:46:26.616Z,24.84
2022-12-25T01:47:26.605Z,24.84
2022-12-25T01:48:26.588Z,24.87
2022-12-25T01:49:26.570Z,24.84
2022-12-25T01:50:26.579Z,24.86
2022-12-25T01:51:26.554Z,24.83
2022-12-25T01:52:26.540Z,24.84
2022-12-25T01:53:26.501Z,24.86
2022-12-25T01:54:26.494Z,24.83
2022-12-25T01:55:26.463Z,24.86
2022-12-25T01:56:26.469Z,24.84
2022-12-25T01:57:26.459Z,24.84
2022-12-25T01:58:26.435Z,24.86
2022-12-25T01:59:26.439Z,24.83
2022-12-25T02:00:26.417Z,24.83
2022-12-25T02:01:26.561Z,24.84
2022-12-25T02:02:26.481Z,24.84
2022-12-25T02:03:26.529Z,24.84
2022-12-25T02:04:26.364Z,24.83
2022-12-25T02:05:26.339Z,24.83
2022-12-25T02:06:26.317Z,24.83
2022-12-25T02:07:26.292Z,24.83
2022-12-25T02:08:26.284Z,24.86
2022-12-25T02:09:26.274Z,24.80
2022-12-25T02:10:26.271Z,24.83
2022-12-25T02:11:26.260Z,24.84
2022-12-25T02:12:26.217Z,24.81
2022-12-25T02:13:26.215Z,24.81
2022-12-25T02:14:26.185Z,24.84
2022-12-25T02:15:26.189Z,24.84
2022-12-25T02:16:26.254Z,24.81
2022-12-25T02:17:26.206Z,24.81
2022-12-25T02:18:26.143Z,24.80
2022-12-25T02:19:26.127Z,24.83
2022-12-25T02:20:26.100Z,24.80
2022-12-25T02:21:26.128Z,24.83
2022-12-25T02:22:26.081Z,24.81
2022-12-25T02:23:26.065Z,24.81
2022-12-25T02:24:26.066Z,24.81
2022-12-25T02:25:26.054Z,24.83
2022-12-25T02:26:26.050Z,24.84
2022-12-25T02:27:26.010Z,24.81
2022-12-25T02:28:26.003Z,24.83
2022-12-25T02:29:25.976Z,24.84
2022-12-25T02:30:25.978Z,24.83
2022-12-25T02:31:26.025Z,24.83
2022-12-25T02:32:25.956Z,24.83
2022-12-25T02:33:25.924Z,24.79
2022-12-25T02:34:25.913Z,24.83
2022-12-25T02:35:25.909Z,24.84
2022-12-25T02:36:25.939Z,24.81
2022-12-25T02:37:25.892Z,24.81
2022-12-25T02:38:25.868Z,24.80
2022-12-25T02:39:25.871Z,24.81
2022-12-25T02:40:25.845Z,24.83
2022-12-25T02:41:25.833Z,24.80
2022-12-25T02:42:25.840Z,24.80
2022-12-25T02:43:25.804Z,24.79
2022-12-25T02:44:25.811Z,24.83
2022-12-25T02:45:25.799Z,24.81
2022-12-25T02:46:25.890Z,24.83
2022-12-25T02:47:25.786Z,24.81
2022-12-25T02:48:25.761Z,24.81
2022-12-25T02:49:25.763Z,24.84
2022-12-25T02:50:25.730Z,24.83
2022-12-25T02:51:25.732Z,24.81
2022-12-25T02:52:25.739Z,24.83
2022-12-25T02:53:25.738Z,24.83
2022-12-25T02:54:25.715Z,24.81
2022-12-25T02:55:25.701Z,24.83
2022-12-25T02:56:25.670Z,24.81
2022-12-25T02:57:25.695Z,24.81
2022-12-25T02:58:25.666Z,24.84
2022-12-25T02:59:25.676Z,24.81
2022-12-25T03:00:25.657Z,24.83
2022-12-25T03:01:25.820Z,24.84
2022-12-25T03:02:25.685Z,24.80
2022-12-25T03:03:25.659Z,24.80
2022-12-25T03:04:25.615Z,24.81
2022-12-25T03:05:25.597Z,24.81
2022-12-25T03:06:25.616Z,24.81
2022-12-25T03:07:25.616Z,24.81
2022-12-25T03:08:25.591Z,24.83
2022-12-25T03:09:25.591Z,24.81
2022-12-25T03:10:25.571Z,24.80
2022-12-25T03:11:25.563Z,24.81
2022-12-25T03:12:25.569Z,24.83
2022-12-25T03:13:25.549Z,24.80
2022-12-25T03:14:25.537Z,24.79
2022-12-25T03:15:25.546Z,24.81
2022-12-25T03:16:25.581Z,24.80
2022-12-25T03:17:25.526Z,24.83
2022-12-25T03:18:25.481Z,24.81
2022-12-25T03:19:25.489Z,24.84
2022-12-25T03:20:25.461Z,24.80
2022-12-25T03:21:25.468Z,24.79
2022-12-25T03:22:25.453Z,24.80
2022-12-25T03:23:25.453Z,24.80
2022-12-25T03:24:25.434Z,24.80
2022-12-25T03:25:25.439Z,24.81
2022-12-25T03:26:25.420Z,24.83
2022-12-25T03:27:25.442Z,24.81
2022-12-25T03:28:25.425Z,24.80
2022-12-25T03:29:30.070Z,24.79
2022-12-25T03:30:26.381Z,24.80
2022-12-25T03:31:25.440Z,24.83
2022-12-25T03:32:25.361Z,24.81
2022-12-25T03:33:44.484Z,24.80
2022-12-25T03:34:26.348Z,24.81
2022-12-25T03:35:25.331Z,24.80
2022-12-25T03:36:25.334Z,24.81
2022-12-25T03:37:25.322Z,24.80
2022-12-25T03:38:25.286Z,24.79
2022-12-25T03:39:25.272Z,24.80
2022-12-25T03:40:25.269Z,24.80
2022-12-25T03:41:25.234Z,24.80
2022-12-25T03:42:25.253Z,24.83
2022-12-25T03:43:25.223Z,24.81
2022-12-25T03:44:25.205Z,24.83
2022-12-25T03:45:25.182Z,24.80
2022-12-25T03:46:25.280Z,24.79
2022-12-25T03:47:25.197Z,24.80
2022-12-25T03:48:25.141Z,24.81
2022-12-25T03:49:25.129Z,24.79
2022-12-25T03:50:25.126Z,24.81
2022-12-25T03:51:25.091Z,24.80
2022-12-25T03:52:25.077Z,24.81
2022-12-25T03:53:25.094Z,24.79
2022-12-25T03:54:25.057Z,24.80
2022-12-25T03:55:25.035Z,24.80
2022-12-25T03:56:25.022Z,24.80
2022-12-25T03:57:25.012Z,24.79
2022-12-25T03:58:25.001Z,24.81
2022-12-25T03:59:25.030Z,24.80
2022-12-25T04:00:24.976Z,24.81
2022-12-25T04:01:25.054Z,24.79
2022-12-25T04:02:25.082Z,24.83
2022-12-25T04:03:24.984Z,24.80
2022-12-25T04:04:24.950Z,24.83
2022-12-25T04:05:24.926Z,24.80
2022-12-25T04:06:24.935Z,24.83
2022-12-25T04:07:24.899Z,24.80
2022-12-25T04:08:24.906Z,24.80
2022-12-25T04:09:24.892Z,24.80
2022-12-25T04:10:24.877Z,24.80
2022-12-25T04:11:24.859Z,24.83
2022-12-25T04:12:24.857Z,24.81
2022-12-25T04:13:24.863Z,24.81
2022-12-25T04:14:24.813Z,24.81
2022-12-25T04:15:24.863Z,24.80
2022-12-25T04:16:24.865Z,24.81
2022-12-25T04:17:24.776Z,24.81
2022-12-25T04:18:24.775Z,24.81
2022-12-25T04:19:24.740Z,24.80
2022-12-25T04:20:24.740Z,24.81
2022-12-25T04:21:24.720Z,24.81
2022-12-25T04:22:24.715Z,24.81
2022-12-25T04:23:24.720Z,24.80
2022-12-25T04:24:24.680Z,24.81
2022-12-25T04:25:24.680Z,24.80
2022-12-25T04:26:24.656Z,24.81
2022-12-25T04:27:24.653Z,24.81
2022-12-25T04:28:24.686Z,24.81
2022-12-25T04:29:24.632Z,24.80
2022-12-25T04:30:24.621Z,24.81
2022-12-25T04:31:24.633Z,24.84
2022-12-25T04:32:24.587Z,24.80
2022-12-25T04:33:24.609Z,24.81
2022-12-25T04:34:24.562Z,24.81
2022-12-25T04:35:24.563Z,24.80
2022-12-25T04:36:24.543Z,24.80
2022-12-25T04:37:24.541Z,24.81
2022-12-25T04:38:24.527Z,24.81
2022-12-25T04:39:24.533Z,24.81
2022-12-25T04:40:24.485Z,24.80
2022-12-25T04:41:24.499Z,24.80
2022-12-25T04:42:24.480Z,24.81
2022-12-25T04:43:24.478Z,24.80
2022-12-25T04:44:24.455Z,24.81
2022-12-25T04:45:24.442Z,24.79
2022-12-25T04:46:24.472Z,24.81
2022-12-25T04:47:24.417Z,24.81
2022-12-25T04:48:24.399Z,24.81
2022-12-25T04:49:24.410Z,24.80
2022-12-25T04:50:24.396Z,24.80
2022-12-25T04:51:24.379Z,24.80
2022-12-25T04:52:24.374Z,24.79
2022-12-25T04:53:24.347Z,24.83
2022-12-25T04:54:24.351Z,24.81
2022-12-25T04:55:24.346Z,24.81
2022-12-25T04:56:24.334Z,24.83
2022-12-25T04:57:24.313Z,24.81
2022-12-25T04:58:24.305Z,24.83
2022-12-25T04:59:24.309Z,24.81
2022-12-25T05:00:24.287Z,24.81
2022-12-25T05:01:24.361Z,24.81
2022-12-25T05:02:24.439Z,24.80
2022-12-25T05:03:24.268Z,24.80
2022-12-25T05:04:24.249Z,24.81
2022-12-25T05:05:24.236Z,24.80
2022-12-25T05:06:24.237Z,24.79
2022-12-25T05:07:24.197Z,24.80
2022-12-25T05:08:24.183Z,24.80
2022-12-25T05:09:24.181Z,24.81
2022-12-25T05:10:24.160Z,24.81
2022-12-25T05:11:24.158Z,24.81
2022-12-25T05:12:24.124Z,24.83
2022-12-25T05:13:24.150Z,24.84
2022-12-25T05:14:24.111Z,24.83
2022-12-25T05:15:24.095Z,24.83
2022-12-25T05:16:24.118Z,24.84
2022-12-25T05:17:24.094Z,24.83
2022-12-25T05:18:24.096Z,24.81
2022-12-25T05:19:24.065Z,24.80
2022-12-25T05:20:24.048Z,24.81
2022-12-25T05:21:24.030Z,24.79
2022-12-25T05:22:24.042Z,24.80
2022-12-25T05:23:24.002Z,24.80
2022-12-25T05:24:24.029Z,24.83
2022-12-25T05:25:23.993Z,24.81
2022-12-25T05:26:24.000Z,24.79
2022-12-25T05:27:23.969Z,24.81
2022-12-25T05:28:23.969Z,24.80
2022-12-25T05:29:23.982Z,24.79
2022-12-25T05:30:23.923Z,24.80
2022-12-25T05:31:24.028Z,24.80
2022-12-25T05:32:23.912Z,24.80
2022-12-25T05:33:23.921Z,24.79
2022-12-25T05:34:23.916Z,24.77
2022-12-25T05:35:23.881Z,24.80
2022-12-25T05:36:23.867Z,24.80
2022-12-25T05:37:23.873Z,24.80
2022-12-25T05:38:23.850Z,24.79
2022-12-25T05:39:23.874Z,24.79
2022-12-25T05:40:23.838Z,24.80
2022-12-25T05:41:25.157Z,24.81
2022-12-25T05:42:23.821Z,24.81
2022-12-25T05:43:23.811Z,24.79
2022-12-25T05:44:23.829Z,24.81
2022-12-25T05:45:23.801Z,24.79
2022-12-25T05:46:23.918Z,24.79
2022-12-25T05:47:23.800Z,24.79
2022-12-25T05:48:23.787Z,24.81
2022-12-25T05:49:23.811Z,24.80
2022-12-25T05:50:23.765Z,24.80
2022-12-25T05:51:23.741Z,24.79
2022-12-25T05:52:23.746Z,24.81
2022-12-25T05:53:23.725Z,24.80
2022-12-25T05:54:23.727Z,24.80
2022-12-25T05:55:23.719Z,24.81
2022-12-25T05:56:23.705Z,24.80
2022-12-25T05:57:23.694Z,24.80
2022-12-25T05:58:23.707Z,24.83
2022-12-25T05:59:23.678Z,24.81
2022-12-25T06:00:23.675Z,24.81
2022-12-25T06:01:23.734Z,24.80
2022-12-25T06:02:23.707Z,24.83
2022-12-25T06:03:23.802Z,24.83
2022-12-25T06:04:23.621Z,24.81
2022-12-25T06:05:23.636Z,24.83
2022-12-25T06:06:23.616Z,24.80
2022-12-25T06:07:23.618Z,24.83
2022-12-25T06:08:23.595Z,24.81
2022-12-25T06:09:23.588Z,24.80
2022-12-25T06:10:23.598Z,24.81
2022-12-25T06:11:23.568Z,24.81
2022-12-25T06:12:23.574Z,24.84
2022-12-25T06:13:23.545Z,24.83
2022-12-25T06:14:23.533Z,24.81
2022-12-25T06:15:23.530Z,24.81
2022-12-25T06:16:23.551Z,24.81
2022-12-25T06:17:23.505Z,24.80
2022-12-25T06:18:23.498Z,24.81
2022-12-25T06:19:23.492Z,24.81
2022-12-25T06:20:23.516Z,24.81
2022-12-25T06:21:23.476Z,24.81
2022-12-25T06:22:23.467Z,24.80
2022-12-25T06:23:23.492Z,24.81
2022-12-25T06:24:23.469Z,24.80
2022-12-25T06:25:23.454Z,24.83
2022-12-25T06:26:23.431Z,24.83
2022-12-25T06:27:23.431Z,24.79
2022-12-25T06:28:23.439Z,24.83
2022-12-25T06:29:23.411Z,24.80
2022-12-25T06:30:23.422Z,24.84
2022-12-25T06:31:23.471Z,24.80
2022-12-25T06:32:23.409Z,24.83
2022-12-25T06:33:23.392Z,24.80
2022-12-25T06:34:23.411Z,24.81
2022-12-25T06:35:23.397Z,24.80
2022-12-25T06:36:23.401Z,24.79
2022-12-25T06:37:23.372Z,24.81
2022-12-25T06:38:23.375Z,24.80
2022-12-25T06:39:23.378Z,24.81
2022-12-25T06:40:23.375Z,24.80
2022-12-25T06:41:23.352Z,24.80
2022-12-25T06:42:23.354Z,24.81
2022-12-25T06:43:23.366Z,24.76
2022-12-25T06:44:23.340Z,24.81
2022-12-25T06:45:23.528Z,24.77
2022-12-25T06:46:23.425Z,24.80
2022-12-25T06:47:23.311Z,24.79
2022-12-25T06:48:23.311Z,24.79
2022-12-25T06:49:23.343Z,24.80
2022-12-25T06:50:23.297Z,24.80
2022-12-25T06:51:23.305Z,24.80
2022-12-25T06:52:23.301Z,24.81
2022-12-25T06:53:23.280Z,24.81
2022-12-25T06:54:23.268Z,24.81
2022-12-25T06:55:23.275Z,24.83
2022-12-25T06:56:23.272Z,24.80
2022-12-25T06:57:23.249Z,24.80
2022-12-25T06:58:23.250Z,24.80
2022-12-25T06:59:23.229Z,24.80
2022-12-25T07:00:23.222Z,24.81
2022-12-25T07:01:23.549Z,24.81
2022-12-25T07:02:23.315Z,24.81
2022-12-25T07:03:23.243Z,24.81
2022-12-25T07:04:23.187Z,24.81
2022-12-25T07:05:23.169Z,24.80
2022-12-25T07:06:23.160Z,24.81
2022-12-25T07:07:23.160Z,24.80
2022-12-25T07:08:23.146Z,24.83
2022-12-25T07:09:23.135Z,24.83
2022-12-25T07:10:23.115Z,24.83
2022-12-25T07:11:23.116Z,24.83
2022-12-25T07:12:23.090Z,24.83
2022-12-25T07:13:23.100Z,24.84
2022-12-25T07:14:24.537Z,24.81
2022-12-25T07:15:23.059Z,24.84
2022-12-25T07:16:23.060Z,24.83
2022-12-25T07:17:23.028Z,24.81
2022-12-25T07:18:23.040Z,24.84
2022-12-25T07:19:23.017Z,24.86
2022-12-25T07:20:22.990Z,24.83
2022-12-25T07:21:23.000Z,24.83
2022-12-25T07:22:22.975Z,24.84
2022-12-25T07:23:22.986Z,24.84
2022-12-25T07:24:22.968Z,24.86
2022-12-25T07:25:22.956Z,24.83
2022-12-25T07:26:22.929Z,24.81
2022-12-25T07:27:22.903Z,24.83
2022-12-25T07:28:22.906Z,24.84
2022-12-25T07:29:22.886Z,24.84
2022-12-25T07:30:22.871Z,24.83
2022-12-25T07:31:22.892Z,24.83
2022-12-25T07:32:22.869Z,24.83
2022-12-25T07:33:22.835Z,24.84
2022-12-25T07:34:22.830Z,24.83
2022-12-25T07:35:22.820Z,24.83
2022-12-25T07:36:22.819Z,24.83
2022-12-25T07:37:22.805Z,24.84
2022-12-25T07:38:22.806Z,24.84
2022-12-25T07:39:22.780Z,24.81
2022-12-25T07:40:22.759Z,24.83
2022-12-25T07:41:22.777Z,24.81
2022-12-25T07:42:25.293Z,24.83
2022-12-25T07:43:22.723Z,24.83
2022-12-25T07:44:22.740Z,24.83
2022-12-25T07:45:22.717Z,24.83
2022-12-25T07:46:22.730Z,24.83
2022-12-25T07:47:22.700Z,24.84
2022-12-25T07:48:22.667Z,24.84
2022-12-25T07:49:22.730Z,24.83
2022-12-25T07:50:22.654Z,24.86
2022-12-25T07:51:22.630Z,24.83
2022-12-25T07:52:22.652Z,24.86
2022-12-25T07:53:22.607Z,24.83
2022-12-25T07:54:22.605Z,24.84
2022-12-25T07:55:22.611Z,24.86
2022-12-25T07:56:22.604Z,24.81
2022-12-25T07:57:22.582Z,24.83
2022-12-25T07:58:23.626Z,24.83
2022-12-25T07:59:22.544Z,24.84
2022-12-25T08:00:22.539Z,24.83
2022-12-25T08:01:22.731Z,24.84
2022-12-25T08:02:22.720Z,24.83
2022-12-25T08:03:22.769Z,24.81
2022-12-25T08:04:22.532Z,24.86
2022-12-25T08:05:22.476Z,24.83
2022-12-25T08:06:22.476Z,24.84
2022-12-25T08:07:22.482Z,24.83
2022-12-25T08:08:22.451Z,24.86
2022-12-25T08:09:22.435Z,24.84
2022-12-25T08:10:22.436Z,24.84
2022-12-25T08:11:22.416Z,24.84
2022-12-25T08:12:22.434Z,24.83
2022-12-25T08:13:22.397Z,24.87
2022-12-25T08:14:22.390Z,24.84
2022-12-25T08:15:22.377Z,24.87
2022-12-25T08:16:22.420Z,24.84
2022-12-25T08:17:22.365Z,24.83
2022-12-25T08:18:29.513Z,24.84
2022-12-25T08:19:23.318Z,24.83
2022-12-25T08:20:22.311Z,24.83
2022-12-25T08:21:22.322Z,24.84
2022-12-25T08:22:22.320Z,24.86
2022-12-25T08:23:22.303Z,24.86
2022-12-25T08:24:22.281Z,24.86
2022-12-25T08:25:22.248Z,24.87
2022-12-25T08:26:22.238Z,24.86
2022-12-25T08:27:22.236Z,24.86
2022-12-25T08:28:22.227Z,24.86
2022-12-25T08:29:22.192Z,24.86
2022-12-25T08:30:22.200Z,24.84
2022-12-25T08:31:22.229Z,24.86
2022-12-25T08:32:22.169Z,24.83
2022-12-25T08:33:22.143Z,24.87
2022-12-25T08:34:22.150Z,24.86
2022-12-25T08:35:22.151Z,24.86
2022-12-25T08:36:22.134Z,24.86
2022-12-25T08:37:22.136Z,24.87
2022-12-25T08:38:22.122Z,24.86
2022-12-25T08:39:22.111Z,24.86
2022-12-25T08:40:22.094Z,24.88
2022-12-25T08:41:22.108Z,24.87
2022-12-25T08:42:22.101Z,24.90
2022-12-25T08:43:22.054Z,24.87
2022-12-25T08:44:22.045Z,24.88
2022-12-25T08:45:22.050Z,24.87
2022-12-25T08:46:22.060Z,24.87
2022-12-25T08:47:22.060Z,24.87
2022-12-25T08:48:22.010Z,24.87
2022-12-25T08:49:21.968Z,24.93
2022-12-25T08:50:21.981Z,24.90
2022-12-25T08:51:21.981Z,24.93
2022-12-25T08:52:21.948Z,24.95
2022-12-25T08:53:21.944Z,24.98
2022-12-25T08:54:21.925Z,24.99
2022-12-25T08:55:21.890Z,25.03
2022-12-25T08:56:21.882Z,25.05
2022-12-25T08:57:21.874Z,25.07
2022-12-25T08:58:21.839Z,25.10
2022-12-25T08:59:21.822Z,25.13
2022-12-25T09:00:21.792Z,25.15
2022-12-25T09:01:21.865Z,25.18
2022-12-25T09:02:21.912Z,25.19
2022-12-25T09:03:21.783Z,25.21
2022-12-25T09:04:21.725Z,25.22
2022-12-25T09:05:21.693Z,25.28
2022-12-25T09:06:21.668Z,25.26
2022-12-25T09:07:21.657Z,25.29
2022-12-25T09:08:21.652Z,25.28
2022-12-25T09:09:21.612Z,25.31
2022-12-25T09:10:21.577Z,25.33
2022-12-25T09:11:21.551Z,25.36
2022-12-25T09:12:21.543Z,25.38
2022-12-25T09:13:21.549Z,25.39
2022-12-25T09:14:21.505Z,25.42
2022-12-25T09:15:21.486Z,25.43
2022-12-25T09:16:21.546Z,25.45
2022-12-25T09:17:21.439Z,25.48
2022-12-25T09:18:21.443Z,25.49
2022-12-25T09:19:21.407Z,25.52
2022-12-25T09:20:21.419Z,25.54
2022-12-25T09:21:21.354Z,25.58
2022-12-25T09:22:21.338Z,25.60
2022-12-25T09:23:21.346Z,25.63
2022-12-25T09:24:21.305Z,25.63
2022-12-25T09:25:21.270Z,25.66
2022-12-25T09:26:21.254Z,25.66
2022-12-25T09:27:21.237Z,25.72
2022-12-25T09:28:21.238Z,25.73
2022-12-25T09:29:21.180Z,25.76
2022-12-25T09:30:21.192Z,25.79
2022-12-25T09:31:21.302Z,25.80
2022-12-25T09:32:21.119Z,25.83
2022-12-25T09:33:21.133Z,25.84
2022-12-25T09:34:21.075Z,25.87
2022-12-25T09:35:21.063Z,25.91
2022-12-25T09:36:21.039Z,25.91
2022-12-25T09:37:21.036Z,25.94
2022-12-25T09:38:20.994Z,25.98
2022-12-25T09:39:20.965Z,26.00
2022-12-25T09:40:20.960Z,26.03
2022-12-25T09:41:20.921Z,26.07
2022-12-25T09:42:20.888Z,26.08
2022-12-25T09:43:20.884Z,26.09
2022-12-25T09:44:20.853Z,26.13
2022-12-25T09:45:20.830Z,26.15
2022-12-25T09:46:20.858Z,26.17
2022-12-25T09:47:20.774Z,26.21
2022-12-25T09:48:20.736Z,26.24
2022-12-25T09:49:20.695Z,26.28
2022-12-25T09:50:20.729Z,26.32
2022-12-25T09:51:20.639Z,26.35
2022-12-25T09:52:20.642Z,26.42
2022-12-25T09:53:20.599Z,26.52
2022-12-25T09:54:20.555Z,26.60
2022-12-25T09:55:21.188Z,26.70
2022-12-25T09:56:20.500Z,26.82
2022-12-25T09:57:20.463Z,26.90
2022-12-25T09:58:20.424Z,26.97
2022-12-25T09:59:20.381Z,27.07
2022-12-25T10:00:20.411Z,27.07
2022-12-25T10:01:20.500Z,27.07
2022-12-25T10:02:20.442Z,27.11
2022-12-25T10:03:20.313Z,27.15
2022-12-25T10:04:20.172Z,27.18
2022-12-25T10:05:20.138Z,27.20
2022-12-25T11:03:17.628Z,27.75
2022-12-25T11:07:17.255Z,27.82
2022-12-25T11:12:17.009Z,27.89
2022-12-25T11:22:16.491Z,27.96
2022-12-25T11:24:16.376Z,27.96
2022-12-25T11:29:16.089Z,27.96
2022-12-25T11:30:16.311Z,27.97
2022-12-25T11:39:15.597Z,27.94
2022-12-25T11:45:15.290Z,27.94
2022-12-25T11:51:15.014Z,27.93
2022-12-25T11:56:14.777Z,27.90
2022-12-25T11:57:14.720Z,27.86
2022-12-25T12:09:14.198Z,27.72
2022-12-25T12:10:14.155Z,27.70
2022-12-25T12:11:14.105Z,27.67
2022-12-25T12:12:14.050Z,27.65
2022-12-25T12:13:14.017Z,27.66
2022-12-25T12:14:13.973Z,27.63
2022-12-25T12:15:13.932Z,27.63
2022-12-25T12:16:13.955Z,27.60
2022-12-25T12:17:13.847Z,27.60
2022-12-25T12:18:13.787Z,27.62
2022-12-25T12:19:13.769Z,27.60
2022-12-25T12:20:13.710Z,27.60
2022-12-25T12:21:13.703Z,27.60
2022-12-25T12:22:13.626Z,27.60
2022-12-25T12:23:13.606Z,27.58
2022-12-25T12:24:13.565Z,27.62
2022-12-25T12:25:13.523Z,27.59
2022-12-25T12:26:13.490Z,27.62
2022-12-25T12:27:13.419Z,27.63
2022-12-25T12:28:13.372Z,27.63
2022-12-25T12:29:13.347Z,27.63
2022-12-25T12:30:13.291Z,27.63
2022-12-25T12:31:13.321Z,27.63
2022-12-25T12:32:13.246Z,27.66
2022-12-25T12:33:13.146Z,27.65
2022-12-25T12:34:13.112Z,27.69
2022-12-25T12:35:13.055Z,27.69
2022-12-25T12:36:13.039Z,27.69
2022-12-25T12:37:12.997Z,27.70
2022-12-25T12:38:12.931Z,27.73
2022-12-25T12:39:12.898Z,27.72
2022-12-25T12:40:12.856Z,27.75
2022-12-25T12:41:12.791Z,27.75
2022-12-25T12:42:12.750Z,27.75
2022-12-25T12:43:12.691Z,27.76
2022-12-25T12:44:12.654Z,27.77
2022-12-25T12:45:12.614Z,27.80
2022-12-25T12:46:12.616Z,27.77
2022-12-25T12:47:12.499Z,27.80
2022-12-25T12:48:12.439Z,27.83
2022-12-25T12:49:12.391Z,27.82
2022-12-25T12:50:12.348Z,27.84
2022-12-25T12:51:12.313Z,27.84
2022-12-25T12:52:12.235Z,27.84
2022-12-25T12:53:12.193Z,27.86
2022-12-25T12:54:12.151Z,27.84
2022-12-25T12:55:12.102Z,27.84
2022-12-25T12:56:12.061Z,27.86
2022-12-25T12:57:12.003Z,27.89
2022-12-25T12:58:11.959Z,27.89
2022-12-25T12:59:11.921Z,27.86
2022-12-25T13:00:11.841Z,27.87
2022-12-25T13:01:11.849Z,27.90
2022-12-25T13:02:11.815Z,27.89
2022-12-25T13:03:11.748Z,27.90
2022-12-25T13:04:11.670Z,27.89
2022-12-25T13:05:11.646Z,27.93
2022-12-25T13:06:11.567Z,27.96
2022-12-25T13:07:11.525Z,27.93
2022-12-25T13:08:11.479Z,27.93
2022-12-25T13:09:11.453Z,27.94
2022-12-25T13:10:11.367Z,27.94
2022-12-25T13:11:11.339Z,27.92
2022-12-25T13:12:11.308Z,27.93
2022-12-25T13:13:11.238Z,27.92
2022-12-25T13:14:11.177Z,27.94
2022-12-25T13:15:11.127Z,27.93
2022-12-25T13:16:11.134Z,27.94
2022-12-25T13:17:11.052Z,27.96
2022-12-25T13:18:10.973Z,27.96
2022-12-25T13:19:10.940Z,27.93
2022-12-25T13:20:10.890Z,27.96
2022-12-25T13:21:10.841Z,27.96
2022-12-25T13:22:10.840Z,27.93
2022-12-25T13:23:10.764Z,27.96
2022-12-25T13:24:10.700Z,27.97
2022-12-25T13:25:10.660Z,27.96
2022-12-25T13:26:10.616Z,27.96
2022-12-25T13:27:10.583Z,27.94
2022-12-25T13:28:10.507Z,27.90
2022-12-25T13:29:11.801Z,27.93
2022-12-25T13:30:10.398Z,27.93
2022-12-25T13:31:10.344Z,27.89
2022-12-25T13:32:10.392Z,27.89
2022-12-25T13:33:10.343Z,27.86
2022-12-25T13:34:10.213Z,27.82
2022-12-25T13:35:10.174Z,27.77
2022-12-25T13:36:10.133Z,27.76
2022-12-25T13:37:10.079Z,27.73
2022-12-25T13:38:10.056Z,27.72
2022-12-25T13:39:09.989Z,27.69
2022-12-25T13:40:09.921Z,27.65
2022-12-25T13:41:09.877Z,27.63
2022-12-25T13:42:09.863Z,27.59
2022-12-25T13:43:09.814Z,27.55
2022-12-25T13:44:09.748Z,27.52
2022-12-25T13:45:09.704Z,27.52
2022-12-25T13:46:09.705Z,27.49
2022-12-25T13:47:09.624Z,27.46
2022-12-25T13:48:09.621Z,27.44
2022-12-25T13:49:09.529Z,27.41
2022-12-25T13:50:09.486Z,27.38
2022-12-25T13:51:09.430Z,27.38
2022-12-25T13:52:09.390Z,27.32
2022-12-25T13:53:09.354Z,27.31
2022-12-25T13:54:09.323Z,27.27
2022-12-25T13:55:09.271Z,27.24
2022-12-25T13:56:09.233Z,27.22
2022-12-25T13:57:09.198Z,27.21
2022-12-25T13:58:09.149Z,27.17
2022-12-25T13:59:09.096Z,27.13
2022-12-25T14:00:09.053Z,27.14
2022-12-25T14:01:09.050Z,27.11
2022-12-25T14:02:09.291Z,27.10
2022-12-25T14:03:08.977Z,27.08
2022-12-25T14:04:08.898Z,27.07
2022-12-25T14:05:08.850Z,27.03
2022-12-25T14:06:08.809Z,27.01
2022-12-25T14:07:08.789Z,27.01
2022-12-25T14:08:08.785Z,26.98
2022-12-25T14:09:08.689Z,26.97
2022-12-25T14:10:08.658Z,26.97
2022-12-25T14:11:08.620Z,26.97
2022-12-25T14:12:10.774Z,26.94
2022-12-25T14:13:09.530Z,26.94
2022-12-25T14:14:08.494Z,26.93
2022-12-25T14:15:08.462Z,26.93
2022-12-25T14:16:08.407Z,26.91
2022-12-25T14:17:08.421Z,26.91
2022-12-25T14:18:08.321Z,26.87
2022-12-25T14:19:08.282Z,26.89
2022-12-25T14:20:08.929Z,26.86
2022-12-25T14:21:08.213Z,26.86
2022-12-25T14:22:08.196Z,26.84
2022-12-25T14:23:08.127Z,26.82
2022-12-25T14:24:08.081Z,26.83
2022-12-25T14:25:08.047Z,26.82
2022-12-25T14:26:08.014Z,26.82
2022-12-25T14:27:07.996Z,26.80
2022-12-25T14:28:07.959Z,26.80
2022-12-25T14:29:11.051Z,26.75
2022-12-25T14:30:08.892Z,26.76
2022-12-25T14:31:07.898Z,26.76
2022-12-25T14:32:07.788Z,26.73
2022-12-25T14:33:07.760Z,26.73
2022-12-25T14:34:07.710Z,26.72
2022-12-25T14:35:07.686Z,26.70
2022-12-25T14:36:07.648Z,26.70
2022-12-25T14:37:07.628Z,26.69
2022-12-25T14:38:07.584Z,26.67
2022-12-25T14:39:07.545Z,26.67
2022-12-25T14:40:07.494Z,26.64
2022-12-25T14:41:07.493Z,26.64
2022-12-25T14:42:07.447Z,26.63
2022-12-25T14:43:07.425Z,26.63
2022-12-25T14:44:07.401Z,26.62
2022-12-25T14:45:07.330Z,26.60
2022-12-25T14:46:07.418Z,26.59